sensor_id;sensor_type;location;lat;lon;timestamp;temperature;humidity
1259;DHT22;619;51.472;6.628;2023-12-14T00:01:21;15.60;89.10
1259;DHT22;619;51.472;6.628;2023-12-14T00:03:47;15.50;88.80
1259;DHT22;619;51.472;6.628;2023-12-14T00:06:13;15.50;88.80
1259;DHT22;619;51.472;6.628;2023-12-14T00:08:39;15.50;88.80
1259;DHT22;619;51.472;6.628;2023-12-14T00:13:31;15.50;88.60
1259;DHT22;619;51.472;6.628;2023-12-14T00:15:59;15.50;88.40
1259;DHT22;619;51.472;6.628;2023-12-14T00:18:27;15.40;88.30
1259;DHT22;619;51.472;6.628;2023-12-14T00:20:55;15.40;88.30
1259;DHT22;619;51.472;6.628;2023-12-14T00:23:24;15.40;88.10
1259;DHT22;619;51.472;6.628;2023-12-14T00:25:52;15.40;88.20
1259;DHT22;619;51.472;6.628;2023-12-14T00:28:18;15.30;88.10
1259;DHT22;619;51.472;6.628;2023-12-14T00:30:43;15.30;88.10
1259;DHT22;619;51.472;6.628;2023-12-14T00:33:11;15.30;88.30
1259;DHT22;619;51.472;6.628;2023-12-14T00:35:40;15.30;88.30
1259;DHT22;619;51.472;6.628;2023-12-14T00:38:08;15.30;88.10
1259;DHT22;619;51.472;6.628;2023-12-14T00:40:34;15.30;88.20
1259;DHT22;619;51.472;6.628;2023-12-14T00:42:59;15.30;88.40
1259;DHT22;619;51.472;6.628;2023-12-14T00:45:27;15.30;88.40
1259;DHT22;619;51.472;6.628;2023-12-14T00:47:53;15.20;88.30
1259;DHT22;619;51.472;6.628;2023-12-14T00:50:21;15.30;88.60
1259;DHT22;619;51.472;6.628;2023-12-14T00:52:51;15.30;88.50
1259;DHT22;619;51.472;6.628;2023-12-14T00:55:17;15.30;88.30
1259;DHT22;619;51.472;6.628;2023-12-14T00:57:47;15.30;88.30
1259;DHT22;619;51.472;6.628;2023-12-14T01:00:13;15.30;88.40
1259;DHT22;619;51.472;6.628;2023-12-14T01:02:41;15.30;88.50
1259;DHT22;619;51.472;6.628;2023-12-14T01:05:07;15.30;88.40
1259;DHT22;619;51.472;6.628;2023-12-14T01:07:33;15.30;88.40
1259;DHT22;619;51.472;6.628;2023-12-14T01:10:03;15.30;88.20
1259;DHT22;619;51.472;6.628;2023-12-14T01:12:29;15.20;88.30
1259;DHT22;619;51.472;6.628;2023-12-14T01:14:57;15.20;88.30
1259;DHT22;619;51.472;6.628;2023-12-14T01:17:23;15.20;88.40
1259;DHT22;619;51.472;6.628;2023-12-14T01:19:49;15.20;88.30
1259;DHT22;619;51.472;6.628;2023-12-14T01:22:17;15.00;88.00
1259;DHT22;619;51.472;6.628;2023-12-14T01:24:45;14.90;88.00
1259;DHT22;619;51.472;6.628;2023-12-14T01:27:13;14.90;88.20
1259;DHT22;619;51.472;6.628;2023-12-14T01:29:39;14.80;89.20
1259;DHT22;619;51.472;6.628;2023-12-14T01:32:07;14.80;88.70
1259;DHT22;619;51.472;6.628;2023-12-14T01:34:35;14.80;88.90
1259;DHT22;619;51.472;6.628;2023-12-14T01:37:01;14.70;88.80
1259;DHT22;619;51.472;6.628;2023-12-14T01:39:26;14.60;88.20
1259;DHT22;619;51.472;6.628;2023-12-14T01:41:54;14.60;88.60
1259;DHT22;619;51.472;6.628;2023-12-14T01:44:20;14.50;88.60
1259;DHT22;619;51.472;6.628;2023-12-14T01:46:48;14.50;88.80
1259;DHT22;619;51.472;6.628;2023-12-14T01:49:16;14.30;88.70
1259;DHT22;619;51.472;6.628;2023-12-14T01:51:41;14.30;89.00
1259;DHT22;619;51.472;6.628;2023-12-14T01:54:09;14.20;89.10
1259;DHT22;619;51.472;6.628;2023-12-14T01:56:35;14.10;89.10
1259;DHT22;619;51.472;6.628;2023-12-14T01:59:03;14.10;89.20
1259;DHT22;619;51.472;6.628;2023-12-14T02:01:44;14.10;89.20
1259;DHT22;619;51.472;6.628;2023-12-14T02:04:15;14.20;89.50
1259;DHT22;619;51.472;6.628;2023-12-14T02:06:41;14.20;89.60
1259;DHT22;619;51.472;6.628;2023-12-14T02:09:09;14.20;89.40
1259;DHT22;619;51.472;6.628;2023-12-14T02:11:35;14.20;89.10
1259;DHT22;619;51.472;6.628;2023-12-14T02:14:11;14.20;89.20
1259;DHT22;619;51.472;6.628;2023-12-14T02:16:42;14.10;89.00
1259;DHT22;619;51.472;6.628;2023-12-14T02:19:12;14.10;88.90
1259;DHT22;619;51.472;6.628;2023-12-14T02:21:40;14.10;89.10
1259;DHT22;619;51.472;6.628;2023-12-14T02:24:08;14.10;89.30
1259;DHT22;619;51.472;6.628;2023-12-14T02:26:39;14.10;89.20
1259;DHT22;619;51.472;6.628;2023-12-14T02:29:07;14.00;89.10
1259;DHT22;619;51.472;6.628;2023-12-14T02:31:35;14.00;88.80
1259;DHT22;619;51.472;6.628;2023-12-14T02:34:05;14.00;89.00
1259;DHT22;619;51.472;6.628;2023-12-14T02:36:31;14.00;88.90
1259;DHT22;619;51.472;6.628;2023-12-14T02:38:59;14.00;88.90
1259;DHT22;619;51.472;6.628;2023-12-14T02:41:27;14.10;88.90
1259;DHT22;619;51.472;6.628;2023-12-14T02:43:52;14.10;88.70
1259;DHT22;619;51.472;6.628;2023-12-14T02:46:21;14.10;88.50
1259;DHT22;619;51.472;6.628;2023-12-14T02:48:49;14.10;88.50
1259;DHT22;619;51.472;6.628;2023-12-14T02:51:17;14.10;88.40
1259;DHT22;619;51.472;6.628;2023-12-14T02:53:42;14.20;88.30
1259;DHT22;619;51.472;6.628;2023-12-14T02:56:10;14.20;87.90
1259;DHT22;619;51.472;6.628;2023-12-14T02:58:36;14.10;87.80
1259;DHT22;619;51.472;6.628;2023-12-14T03:01:02;14.10;87.80
1259;DHT22;619;51.472;6.628;2023-12-14T03:03:30;14.10;87.50
1259;DHT22;619;51.472;6.628;2023-12-14T03:05:58;13.90;87.60
1259;DHT22;619;51.472;6.628;2023-12-14T03:08:23;13.90;87.60
1259;DHT22;619;51.472;6.628;2023-12-14T03:10:49;13.90;87.80
1259;DHT22;619;51.472;6.628;2023-12-14T03:13:17;13.90;88.90
1259;DHT22;619;51.472;6.628;2023-12-14T03:15:43;13.90;88.20
1259;DHT22;619;51.472;6.628;2023-12-14T03:18:12;13.90;88.20
1259;DHT22;619;51.472;6.628;2023-12-14T03:20:37;13.90;88.00
1259;DHT22;619;51.472;6.628;2023-12-14T03:23:08;13.90;87.80
1259;DHT22;619;51.472;6.628;2023-12-14T03:25:36;13.90;87.90
1259;DHT22;619;51.472;6.628;2023-12-14T03:28:04;13.90;87.90
1259;DHT22;619;51.472;6.628;2023-12-14T03:30:30;13.90;87.90
1259;DHT22;619;51.472;6.628;2023-12-14T03:32:58;13.90;87.90
1259;DHT22;619;51.472;6.628;2023-12-14T03:35:29;13.90;87.40
1259;DHT22;619;51.472;6.628;2023-12-14T03:37:56;13.70;87.70
1259;DHT22;619;51.472;6.628;2023-12-14T03:40:22;13.60;87.80
1259;DHT22;619;51.472;6.628;2023-12-14T03:42:50;13.50;88.10
1259;DHT22;619;51.472;6.628;2023-12-14T03:45:18;13.40;88.40
1259;DHT22;619;51.472;6.628;2023-12-14T03:47:44;13.40;88.50
1259;DHT22;619;51.472;6.628;2023-12-14T03:50:12;13.30;88.60
1259;DHT22;619;51.472;6.628;2023-12-14T03:52:47;13.30;88.80
1259;DHT22;619;51.472;6.628;2023-12-14T03:55:15;13.20;89.00
1259;DHT22;619;51.472;6.628;2023-12-14T03:57:43;13.20;89.10
1259;DHT22;619;51.472;6.628;2023-12-14T04:00:16;13.30;89.30
1259;DHT22;619;51.472;6.628;2023-12-14T04:02:45;13.30;89.40
1259;DHT22;619;51.472;6.628;2023-12-14T04:05:10;13.30;89.20
1259;DHT22;619;51.472;6.628;2023-12-14T04:07:39;13.30;89.00
1259;DHT22;619;51.472;6.628;2023-12-14T04:10:08;13.40;89.00
1259;DHT22;619;51.472;6.628;2023-12-14T04:12:40;13.40;88.80
1259;DHT22;619;51.472;6.628;2023-12-14T04:15:10;13.30;88.60
1259;DHT22;619;51.472;6.628;2023-12-14T04:17:36;13.20;88.70
1259;DHT22;619;51.472;6.628;2023-12-14T04:20:02;13.20;88.70
1259;DHT22;619;51.472;6.628;2023-12-14T04:22:36;13.20;88.70
1259;DHT22;619;51.472;6.628;2023-12-14T04:25:05;13.20;88.80
1259;DHT22;619;51.472;6.628;2023-12-14T04:27:33;13.20;88.80
1259;DHT22;619;51.472;6.628;2023-12-14T04:30:01;13.30;88.90
1259;DHT22;619;51.472;6.628;2023-12-14T04:32:27;13.30;88.80
1259;DHT22;619;51.472;6.628;2023-12-14T04:34:55;13.40;88.70
1259;DHT22;619;51.472;6.628;2023-12-14T04:37:20;13.40;89.10
1259;DHT22;619;51.472;6.628;2023-12-14T04:39:46;13.40;88.30
1259;DHT22;619;51.472;6.628;2023-12-14T04:42:14;13.40;88.20
1259;DHT22;619;51.472;6.628;2023-12-14T04:44:44;13.50;88.30
1259;DHT22;619;51.472;6.628;2023-12-14T04:47:11;13.50;88.20
1259;DHT22;619;51.472;6.628;2023-12-14T04:49:36;13.60;88.10
1259;DHT22;619;51.472;6.628;2023-12-14T04:52:02;13.70;87.90
1259;DHT22;619;51.472;6.628;2023-12-14T04:54:28;13.70;87.60
1259;DHT22;619;51.472;6.628;2023-12-14T04:56:56;13.70;87.40
1259;DHT22;619;51.472;6.628;2023-12-14T04:59:24;13.70;87.20
1259;DHT22;619;51.472;6.628;2023-12-14T05:01:59;13.70;87.20
1259;DHT22;619;51.472;6.628;2023-12-14T05:04:32;13.70;87.10
1259;DHT22;619;51.472;6.628;2023-12-14T05:07:00;13.70;87.10
1259;DHT22;619;51.472;6.628;2023-12-14T05:09:28;13.70;87.00
1259;DHT22;619;51.472;6.628;2023-12-14T05:11:57;13.70;87.10
1259;DHT22;619;51.472;6.628;2023-12-14T05:14:22;13.70;86.80
1259;DHT22;619;51.472;6.628;2023-12-14T05:16:52;13.70;87.00
1259;DHT22;619;51.472;6.628;2023-12-14T05:19:20;13.60;86.80
1259;DHT22;619;51.472;6.628;2023-12-14T05:21:48;13.60;87.00
1259;DHT22;619;51.472;6.628;2023-12-14T05:24:15;13.60;87.70
1259;DHT22;619;51.472;6.628;2023-12-14T05:26:43;13.60;86.90
1259;DHT22;619;51.472;6.628;2023-12-14T05:29:11;13.60;87.10
1259;DHT22;619;51.472;6.628;2023-12-14T05:31:41;13.50;87.00
1259;DHT22;619;51.472;6.628;2023-12-14T05:34:06;13.50;87.00
1259;DHT22;619;51.472;6.628;2023-12-14T05:36:34;13.50;86.90
1259;DHT22;619;51.472;6.628;2023-12-14T05:39:02;13.50;87.00
1259;DHT22;619;51.472;6.628;2023-12-14T05:41:30;13.50;86.90
1259;DHT22;619;51.472;6.628;2023-12-14T05:43:58;13.50;87.10
1259;DHT22;619;51.472;6.628;2023-12-14T05:46:24;13.50;87.10
1259;DHT22;619;51.472;6.628;2023-12-14T05:48:51;13.60;87.20
1259;DHT22;619;51.472;6.628;2023-12-14T05:51:30;13.60;87.00
1259;DHT22;619;51.472;6.628;2023-12-14T05:53:57;13.60;86.90
1259;DHT22;619;51.472;6.628;2023-12-14T05:56:28;13.60;87.00
1259;DHT22;619;51.472;6.628;2023-12-14T05:58:57;13.50;86.90
1259;DHT22;619;51.472;6.628;2023-12-14T06:01:25;13.50;87.00
1259;DHT22;619;51.472;6.628;2023-12-14T06:03:51;13.50;86.80
1259;DHT22;619;51.472;6.628;2023-12-14T06:06:18;13.50;86.80
1259;DHT22;619;51.472;6.628;2023-12-14T06:08:45;13.50;86.80
1259;DHT22;619;51.472;6.628;2023-12-14T06:11:13;13.50;86.80
1259;DHT22;619;51.472;6.628;2023-12-14T06:13:41;13.40;86.70
1259;DHT22;619;51.472;6.628;2023-12-14T06:16:07;13.50;87.10
1259;DHT22;619;51.472;6.628;2023-12-14T06:18:42;13.50;87.10
1259;DHT22;619;51.472;6.628;2023-12-14T06:21:10;13.40;87.10
1259;DHT22;619;51.472;6.628;2023-12-14T06:23:41;13.40;87.00
1259;DHT22;619;51.472;6.628;2023-12-14T06:26:06;13.40;87.20
1259;DHT22;619;51.472;6.628;2023-12-14T06:28:34;13.40;87.00
1259;DHT22;619;51.472;6.628;2023-12-14T06:31:02;13.30;87.10
1259;DHT22;619;51.472;6.628;2023-12-14T06:33:31;13.30;87.20
1259;DHT22;619;51.472;6.628;2023-12-14T06:36:03;13.30;87.30
1259;DHT22;619;51.472;6.628;2023-12-14T06:38:32;13.30;87.20
1259;DHT22;619;51.472;6.628;2023-12-14T06:41:04;13.30;87.40
1259;DHT22;619;51.472;6.628;2023-12-14T06:43:32;13.30;87.40
1259;DHT22;619;51.472;6.628;2023-12-14T06:46:01;13.20;87.00
1259;DHT22;619;51.472;6.628;2023-12-14T06:48:29;13.10;87.30
1259;DHT22;619;51.472;6.628;2023-12-14T06:50:57;13.20;87.50
1259;DHT22;619;51.472;6.628;2023-12-14T06:53:25;13.20;87.60
1259;DHT22;619;51.472;6.628;2023-12-14T06:56:00;13.20;87.50
1259;DHT22;619;51.472;6.628;2023-12-14T06:58:28;13.10;87.10
1259;DHT22;619;51.472;6.628;2023-12-14T07:00:59;13.10;87.20
1259;DHT22;619;51.472;6.628;2023-12-14T07:03:26;13.10;87.30
1259;DHT22;619;51.472;6.628;2023-12-14T07:05:54;13.10;87.30
1259;DHT22;619;51.472;6.628;2023-12-14T07:08:20;13.10;87.20
1259;DHT22;619;51.472;6.628;2023-12-14T07:10:48;13.10;87.10
1259;DHT22;619;51.472;6.628;2023-12-14T07:13:13;13.00;87.00
1259;DHT22;619;51.472;6.628;2023-12-14T07:15:39;12.90;87.00
1259;DHT22;619;51.472;6.628;2023-12-14T07:18:11;12.80;87.20
1259;DHT22;619;51.472;6.628;2023-12-14T07:20:39;12.80;87.50
1259;DHT22;619;51.472;6.628;2023-12-14T07:23:15;12.50;87.30
1259;DHT22;619;51.472;6.628;2023-12-14T07:25:41;12.50;87.80
1259;DHT22;619;51.472;6.628;2023-12-14T07:28:09;12.50;87.80
1259;DHT22;619;51.472;6.628;2023-12-14T07:30:35;12.50;87.80
1259;DHT22;619;51.472;6.628;2023-12-14T07:33:03;12.50;88.00
1259;DHT22;619;51.472;6.628;2023-12-14T07:35:28;12.60;88.10
1259;DHT22;619;51.472;6.628;2023-12-14T07:37:54;12.60;87.90
1259;DHT22;619;51.472;6.628;2023-12-14T07:40:24;12.60;87.70
1259;DHT22;619;51.472;6.628;2023-12-14T07:42:50;12.70;87.60
1259;DHT22;619;51.472;6.628;2023-12-14T07:45:20;12.70;87.40
1259;DHT22;619;51.472;6.628;2023-12-14T07:47:52;12.80;87.10
1259;DHT22;619;51.472;6.628;2023-12-14T07:50:21;12.80;87.00
1259;DHT22;619;51.472;6.628;2023-12-14T07:52:54;12.90;86.90
1259;DHT22;619;51.472;6.628;2023-12-14T07:55:20;12.90;86.60
1259;DHT22;619;51.472;6.628;2023-12-14T07:57:46;12.90;86.20
1259;DHT22;619;51.472;6.628;2023-12-14T08:00:12;12.90;86.20
1259;DHT22;619;51.472;6.628;2023-12-14T08:02:38;12.90;86.80
1259;DHT22;619;51.472;6.628;2023-12-14T08:05:04;12.90;85.80
1259;DHT22;619;51.472;6.628;2023-12-14T08:07:33;12.80;85.70
1259;DHT22;619;51.472;6.628;2023-12-14T08:09:59;12.80;86.10
1259;DHT22;619;51.472;6.628;2023-12-14T08:12:27;12.80;86.00
1259;DHT22;619;51.472;6.628;2023-12-14T08:14:55;12.80;86.00
1259;DHT22;619;51.472;6.628;2023-12-14T08:17:23;12.90;86.20
1259;DHT22;619;51.472;6.628;2023-12-14T08:19:51;12.90;86.30
1259;DHT22;619;51.472;6.628;2023-12-14T08:22:22;13.00;86.30
1259;DHT22;619;51.472;6.628;2023-12-14T08:24:48;13.00;86.00
1259;DHT22;619;51.472;6.628;2023-12-14T08:27:16;13.10;85.90
1259;DHT22;619;51.472;6.628;2023-12-14T08:29:41;13.20;86.70
1259;DHT22;619;51.472;6.628;2023-12-14T08:32:13;13.20;85.70
1259;DHT22;619;51.472;6.628;2023-12-14T08:34:41;13.30;85.70
1259;DHT22;619;51.472;6.628;2023-12-14T08:37:09;13.30;85.50
1259;DHT22;619;51.472;6.628;2023-12-14T08:39:39;13.30;85.30
1259;DHT22;619;51.472;6.628;2023-12-14T08:42:07;13.30;84.70
1259;DHT22;619;51.472;6.628;2023-12-14T08:44:41;13.30;84.60
1259;DHT22;619;51.472;6.628;2023-12-14T08:47:09;13.30;84.90
1259;DHT22;619;51.472;6.628;2023-12-14T08:49:37;13.30;85.00
1259;DHT22;619;51.472;6.628;2023-12-14T08:52:06;13.40;85.20
1259;DHT22;619;51.472;6.628;2023-12-14T08:54:36;13.40;85.10
1259;DHT22;619;51.472;6.628;2023-12-14T08:57:02;13.40;84.80
1259;DHT22;619;51.472;6.628;2023-12-14T08:59:30;13.40;84.60
1259;DHT22;619;51.472;6.628;2023-12-14T09:01:58;13.40;84.70
1259;DHT22;619;51.472;6.628;2023-12-14T09:04:23;13.30;84.50
1259;DHT22;619;51.472;6.628;2023-12-14T09:06:49;13.40;84.50
1259;DHT22;619;51.472;6.628;2023-12-14T09:09:17;13.30;84.40
1259;DHT22;619;51.472;6.628;2023-12-14T09:11:44;13.30;84.40
1259;DHT22;619;51.472;6.628;2023-12-14T09:14:12;13.30;84.40
1259;DHT22;619;51.472;6.628;2023-12-14T09:16:38;13.30;84.40
1259;DHT22;619;51.472;6.628;2023-12-14T09:19:04;13.30;84.30
1259;DHT22;619;51.472;6.628;2023-12-14T09:21:29;13.40;84.70
1259;DHT22;619;51.472;6.628;2023-12-14T09:23:57;13.40;84.80
1259;DHT22;619;51.472;6.628;2023-12-14T09:26:22;13.50;84.70
1259;DHT22;619;51.472;6.628;2023-12-14T09:28:49;13.50;84.50
1259;DHT22;619;51.472;6.628;2023-12-14T09:31:14;13.50;84.50
1259;DHT22;619;51.472;6.628;2023-12-14T09:33:41;13.50;84.20
1259;DHT22;619;51.472;6.628;2023-12-14T09:36:09;13.50;84.00
1259;DHT22;619;51.472;6.628;2023-12-14T09:38:38;13.50;83.90
1259;DHT22;619;51.472;6.628;2023-12-14T09:41:04;13.50;83.80
1259;DHT22;619;51.472;6.628;2023-12-14T09:43:32;13.50;84.00
1259;DHT22;619;51.472;6.628;2023-12-14T09:46:04;13.50;84.10
1259;DHT22;619;51.472;6.628;2023-12-14T09:48:32;13.60;84.00
1259;DHT22;619;51.472;6.628;2023-12-14T09:50:58;13.60;84.10
1259;DHT22;619;51.472;6.628;2023-12-14T09:53:24;13.60;83.90
1259;DHT22;619;51.472;6.628;2023-12-14T09:55:52;13.60;83.60
1259;DHT22;619;51.472;6.628;2023-12-14T09:58:18;13.60;83.80
1259;DHT22;619;51.472;6.628;2023-12-14T10:00:43;13.60;83.70
1259;DHT22;619;51.472;6.628;2023-12-14T10:03:22;13.60;83.60
1259;DHT22;619;51.472;6.628;2023-12-14T10:05:55;13.60;83.50
1259;DHT22;619;51.472;6.628;2023-12-14T10:08:24;13.60;83.30
1259;DHT22;619;51.472;6.628;2023-12-14T10:10:52;13.50;82.90
1259;DHT22;619;51.472;6.628;2023-12-14T10:13:37;13.50;83.10
1259;DHT22;619;51.472;6.628;2023-12-14T10:16:06;13.40;83.20
1259;DHT22;619;51.472;6.628;2023-12-14T10:18:36;13.40;83.30
1259;DHT22;619;51.472;6.628;2023-12-14T10:21:02;13.30;83.50
1259;DHT22;619;51.472;6.628;2023-12-14T10:23:30;13.30;83.90
1259;DHT22;619;51.472;6.628;2023-12-14T10:26:03;13.20;83.90
1259;DHT22;619;51.472;6.628;2023-12-14T10:28:32;13.20;84.00
1259;DHT22;619;51.472;6.628;2023-12-14T10:31:00;13.20;83.60
1259;DHT22;619;51.472;6.628;2023-12-14T10:33:30;13.10;84.00
1259;DHT22;619;51.472;6.628;2023-12-14T10:36:03;13.20;84.60
1259;DHT22;619;51.472;6.628;2023-12-14T10:38:29;13.20;84.30
1259;DHT22;619;51.472;6.628;2023-12-14T10:40:57;13.20;84.20
1259;DHT22;619;51.472;6.628;2023-12-14T10:43:24;13.10;83.70
1259;DHT22;619;51.472;6.628;2023-12-14T10:45:52;13.10;84.00
1259;DHT22;619;51.472;6.628;2023-12-14T10:48:21;13.20;84.30
1259;DHT22;619;51.472;6.628;2023-12-14T10:50:48;13.30;84.50
1259;DHT22;619;51.472;6.628;2023-12-14T10:53:17;13.30;84.30
1259;DHT22;619;51.472;6.628;2023-12-14T10:55:47;13.30;84.00
1259;DHT22;619;51.472;6.628;2023-12-14T10:58:13;13.20;83.60
1259;DHT22;619;51.472;6.628;2023-12-14T11:00:41;13.20;84.00
1259;DHT22;619;51.472;6.628;2023-12-14T11:03:16;13.20;84.10
1259;DHT22;619;51.472;6.628;2023-12-14T11:05:42;13.20;84.40
1259;DHT22;619;51.472;6.628;2023-12-14T11:08:10;13.20;84.20
1259;DHT22;619;51.472;6.628;2023-12-14T11:11:03;13.10;83.80
1259;DHT22;619;51.472;6.628;2023-12-14T11:13:35;13.00;84.80
1259;DHT22;619;51.472;6.628;2023-12-14T11:16:06;13.10;84.50
1259;DHT22;619;51.472;6.628;2023-12-14T11:18:37;13.10;84.80
1259;DHT22;619;51.472;6.628;2023-12-14T11:21:06;13.10;84.80
1259;DHT22;619;51.472;6.628;2023-12-14T11:23:38;13.20;84.70
1259;DHT22;619;51.472;6.628;2023-12-14T11:26:09;13.20;84.50
1259;DHT22;619;51.472;6.628;2023-12-14T11:28:36;13.20;84.50
1259;DHT22;619;51.472;6.628;2023-12-14T11:31:10;13.30;84.30
1259;DHT22;619;51.472;6.628;2023-12-14T11:33:38;13.20;84.00
1259;DHT22;619;51.472;6.628;2023-12-14T11:36:10;13.30;84.20
1259;DHT22;619;51.472;6.628;2023-12-14T11:38:37;13.30;84.20
1259;DHT22;619;51.472;6.628;2023-12-14T11:41:02;13.40;84.20
1259;DHT22;619;51.472;6.628;2023-12-14T11:43:28;13.40;84.00
1259;DHT22;619;51.472;6.628;2023-12-14T11:45:58;13.30;83.70
1259;DHT22;619;51.472;6.628;2023-12-14T11:48:28;13.40;84.10
1259;DHT22;619;51.472;6.628;2023-12-14T11:50:54;13.40;84.20
1259;DHT22;619;51.472;6.628;2023-12-14T11:53:20;13.40;83.90
1259;DHT22;619;51.472;6.628;2023-12-14T11:55:53;13.40;83.60
1259;DHT22;619;51.472;6.628;2023-12-14T11:58:19;13.40;83.70
1259;DHT22;619;51.472;6.628;2023-12-14T12:00:47;13.40;83.80
1259;DHT22;619;51.472;6.628;2023-12-14T12:03:19;13.50;83.80
1259;DHT22;619;51.472;6.628;2023-12-14T12:05:50;13.40;83.80
1259;DHT22;619;51.472;6.628;2023-12-14T12:08:20;13.40;83.70
1259;DHT22;619;51.472;6.628;2023-12-14T12:10:49;13.40;83.60
1259;DHT22;619;51.472;6.628;2023-12-14T12:13:19;13.40;83.20
1259;DHT22;619;51.472;6.628;2023-12-14T12:15:48;13.40;83.20
1259;DHT22;619;51.472;6.628;2023-12-14T12:18:18;13.40;83.30
1259;DHT22;619;51.472;6.628;2023-12-14T12:20:44;13.40;83.10
1259;DHT22;619;51.472;6.628;2023-12-14T12:23:09;13.30;83.00
1259;DHT22;619;51.472;6.628;2023-12-14T12:25:37;13.30;83.20
1259;DHT22;619;51.472;6.628;2023-12-14T12:28:03;13.30;82.70
1259;DHT22;619;51.472;6.628;2023-12-14T12:30:32;13.30;82.80
1259;DHT22;619;51.472;6.628;2023-12-14T12:33:00;13.30;82.50
1259;DHT22;619;51.472;6.628;2023-12-14T12:35:26;13.30;82.50
1259;DHT22;619;51.472;6.628;2023-12-14T12:37:58;13.20;82.40
1259;DHT22;619;51.472;6.628;2023-12-14T12:40:24;13.20;82.40
1259;DHT22;619;51.472;6.628;2023-12-14T12:42:55;13.20;82.50
1259;DHT22;619;51.472;6.628;2023-12-14T12:45:23;13.20;82.20
1259;DHT22;619;51.472;6.628;2023-12-14T12:47:53;13.10;82.10
1259;DHT22;619;51.472;6.628;2023-12-14T12:50:19;13.10;82.30
1259;DHT22;619;51.472;6.628;2023-12-14T12:52:44;13.10;82.40
1259;DHT22;619;51.472;6.628;2023-12-14T12:55:14;13.10;82.40
1259;DHT22;619;51.472;6.628;2023-12-14T12:57:41;13.10;82.30
1259;DHT22;619;51.472;6.628;2023-12-14T13:00:12;13.20;82.50
1259;DHT22;619;51.472;6.628;2023-12-14T13:02:41;13.10;82.50
1259;DHT22;619;51.472;6.628;2023-12-14T13:05:10;13.20;82.40
1259;DHT22;619;51.472;6.628;2023-12-14T13:07:36;13.20;82.40
1259;DHT22;619;51.472;6.628;2023-12-14T13:10:03;13.20;82.30
1259;DHT22;619;51.472;6.628;2023-12-14T13:12:32;13.20;81.80
1259;DHT22;619;51.472;6.628;2023-12-14T13:15:01;13.20;81.50
1259;DHT22;619;51.472;6.628;2023-12-14T13:17:27;13.10;81.60
1259;DHT22;619;51.472;6.628;2023-12-14T13:19:52;13.00;81.60
1259;DHT22;619;51.472;6.628;2023-12-14T13:22:18;13.00;81.80
1259;DHT22;619;51.472;6.628;2023-12-14T13:24:46;12.90;81.50
1259;DHT22;619;51.472;6.628;2023-12-14T13:27:17;12.80;81.50
1259;DHT22;619;51.472;6.628;2023-12-14T13:29:47;12.80;81.40
1259;DHT22;619;51.472;6.628;2023-12-14T13:32:13;12.70;81.60
1259;DHT22;619;51.472;6.628;2023-12-14T13:34:38;12.70;81.80
1259;DHT22;619;51.472;6.628;2023-12-14T13:37:06;12.70;81.80
1259;DHT22;619;51.472;6.628;2023-12-14T13:39:36;12.70;81.90
1259;DHT22;619;51.472;6.628;2023-12-14T13:42:09;12.70;81.80
1259;DHT22;619;51.472;6.628;2023-12-14T13:44:37;12.70;82.10
1259;DHT22;619;51.472;6.628;2023-12-14T13:47:04;12.70;82.00
1259;DHT22;619;51.472;6.628;2023-12-14T13:49:30;12.80;82.90
1259;DHT22;619;51.472;6.628;2023-12-14T13:51:55;12.80;82.10
1259;DHT22;619;51.472;6.628;2023-12-14T13:54:21;12.90;82.10
1259;DHT22;619;51.472;6.628;2023-12-14T13:56:49;12.90;81.80
1259;DHT22;619;51.472;6.628;2023-12-14T13:59:15;12.90;81.90
1259;DHT22;619;51.472;6.628;2023-12-14T14:01:42;12.90;81.90
1259;DHT22;619;51.472;6.628;2023-12-14T14:04:10;12.90;81.60
1259;DHT22;619;51.472;6.628;2023-12-14T14:06:36;12.90;81.60
1259;DHT22;619;51.472;6.628;2023-12-14T14:09:02;12.90;81.40
1259;DHT22;619;51.472;6.628;2023-12-14T14:11:29;12.90;81.40
1259;DHT22;619;51.472;6.628;2023-12-14T14:13:57;12.80;81.50
1259;DHT22;619;51.472;6.628;2023-12-14T14:16:25;12.80;81.50
1259;DHT22;619;51.472;6.628;2023-12-14T14:18:51;12.80;81.70
1259;DHT22;619;51.472;6.628;2023-12-14T14:21:21;12.80;81.40
1259;DHT22;619;51.472;6.628;2023-12-14T14:23:47;12.80;81.60
1259;DHT22;619;51.472;6.628;2023-12-14T14:26:15;12.80;81.50
1259;DHT22;619;51.472;6.628;2023-12-14T14:28:41;12.80;81.60
1259;DHT22;619;51.472;6.628;2023-12-14T14:31:08;12.80;81.60
1259;DHT22;619;51.472;6.628;2023-12-14T14:33:34;12.80;81.50
1259;DHT22;619;51.472;6.628;2023-12-14T14:36:03;12.80;81.50
1259;DHT22;619;51.472;6.628;2023-12-14T14:38:31;12.80;81.20
1259;DHT22;619;51.472;6.628;2023-12-14T14:41:06;12.80;81.00
1259;DHT22;619;51.472;6.628;2023-12-14T14:43:31;12.80;81.00
1259;DHT22;619;51.472;6.628;2023-12-14T14:45:57;12.80;80.70
1259;DHT22;619;51.472;6.628;2023-12-14T14:48:26;12.80;80.90
1259;DHT22;619;51.472;6.628;2023-12-14T14:50:54;12.80;81.00
1259;DHT22;619;51.472;6.628;2023-12-14T14:53:20;12.90;81.00
1259;DHT22;619;51.472;6.628;2023-12-14T14:55:46;12.90;81.20
1259;DHT22;619;51.472;6.628;2023-12-14T14:58:18;13.00;81.20
1259;DHT22;619;51.472;6.628;2023-12-14T15:00:46;13.00;81.00
1259;DHT22;619;51.472;6.628;2023-12-14T15:03:23;13.00;81.10
1259;DHT22;619;51.472;6.628;2023-12-14T15:05:53;13.10;81.10
1259;DHT22;619;51.472;6.628;2023-12-14T15:08:21;13.10;80.80
1259;DHT22;619;51.472;6.628;2023-12-14T15:10:49;13.10;81.00
1259;DHT22;619;51.472;6.628;2023-12-14T15:13:15;13.20;81.30
1259;DHT22;619;51.472;6.628;2023-12-14T15:15:44;13.20;81.30
1259;DHT22;619;51.472;6.628;2023-12-14T15:18:10;13.20;81.00
1259;DHT22;619;51.472;6.628;2023-12-14T15:20:36;13.30;80.80
1259;DHT22;619;51.472;6.628;2023-12-14T15:23:05;13.30;80.70
1259;DHT22;619;51.472;6.628;2023-12-14T15:25:30;13.30;80.50
1259;DHT22;619;51.472;6.628;2023-12-14T15:28:01;13.30;80.60
1259;DHT22;619;51.472;6.628;2023-12-14T15:30:26;13.30;80.80
1259;DHT22;619;51.472;6.628;2023-12-14T15:32:58;13.30;80.70
1259;DHT22;619;51.472;6.628;2023-12-14T15:35:26;13.30;80.60
1259;DHT22;619;51.472;6.628;2023-12-14T15:37:54;13.40;80.60
1259;DHT22;619;51.472;6.628;2023-12-14T15:40:22;13.30;80.30
1259;DHT22;619;51.472;6.628;2023-12-14T15:42:47;13.30;80.10
1259;DHT22;619;51.472;6.628;2023-12-14T15:45:17;13.30;80.00
1259;DHT22;619;51.472;6.628;2023-12-14T15:47:42;13.20;80.00
1259;DHT22;619;51.472;6.628;2023-12-14T15:50:10;13.30;80.80
1259;DHT22;619;51.472;6.628;2023-12-14T15:52:40;13.30;80.10
1259;DHT22;619;51.472;6.628;2023-12-14T15:55:06;13.30;80.40
1259;DHT22;619;51.472;6.628;2023-12-14T15:57:33;13.30;80.50
1259;DHT22;619;51.472;6.628;2023-12-14T16:00:03;13.30;80.60
1259;DHT22;619;51.472;6.628;2023-12-14T16:02:31;13.40;80.60
1259;DHT22;619;51.472;6.628;2023-12-14T16:04:57;13.40;80.60
1259;DHT22;619;51.472;6.628;2023-12-14T16:07:22;13.40;80.10
1259;DHT22;619;51.472;6.628;2023-12-14T16:09:51;13.40;80.10
1259;DHT22;619;51.472;6.628;2023-12-14T16:12:18;13.30;79.90
1259;DHT22;619;51.472;6.628;2023-12-14T16:14:48;13.40;80.20
1259;DHT22;619;51.472;6.628;2023-12-14T16:17:14;13.30;80.30
1259;DHT22;619;51.472;6.628;2023-12-14T16:19:40;13.30;80.40
1259;DHT22;619;51.472;6.628;2023-12-14T16:22:05;13.30;80.70
1259;DHT22;619;51.472;6.628;2023-12-14T16:24:31;13.30;80.60